sensor_id;sensor_type;location;lat;lon;timestamp;P1;durP1;ratioP1;P2;durP2;ratioP2
27161;SDS011;54464;50.558;9.704;2022-12-07T00:01:24;14.57;;;10.37;;
27161;SDS011;54464;50.558;9.704;2022-12-07T00:03:51;14.90;;;9.90;;
27161;SDS011;54464;50.558;9.704;2022-12-07T00:06:20;11.27;;;9.20;;
27161;SDS011;54464;50.558;9.704;2022-12-07T00:08:46;11.13;;;9.13;;
27161;SDS011;54464;50.558;9.704;2022-12-07T00:11:14;9.60;;;8.17;;
27161;SDS011;54464;50.558;9.704;2022-12-07T00:13:42;9.93;;;8.10;;
27161;SDS011;54464;50.558;9.704;2022-12-07T00:16:14;10.00;;;7.97;;
27161;SDS011;54464;50.558;9.704;2022-12-07T00:18:41;11.30;;;8.90;;
27161;SDS011;54464;50.558;9.704;2022-12-07T00:21:18;10.43;;;8.50;;
27161;SDS011;54464;50.558;9.704;2022-12-07T00:23:46;12.13;;;9.23;;
27161;SDS011;54464;50.558;9.704;2022-12-07T00:26:14;12.47;;;9.17;;
27161;SDS011;54464;50.558;9.704;2022-12-07T00:28:40;12.80;;;9.40;;
27161;SDS011;54464;50.558;9.704;2022-12-07T00:31:07;12.27;;;9.53;;
27161;SDS011;54464;50.558;9.704;2022-12-07T00:33:35;11.97;;;9.77;;
27161;SDS011;54464;50.558;9.704;2022-12-07T00:36:01;12.80;;;9.97;;
27161;SDS011;54464;50.558;9.704;2022-12-07T00:38:30;14.13;;;10.23;;
27161;SDS011;54464;50.558;9.704;2022-12-07T00:40:59;13.77;;;10.07;;
27161;SDS011;54464;50.558;9.704;2022-12-07T00:43:27;14.30;;;9.83;;
27161;SDS011;54464;50.558;9.704;2022-12-07T00:45:53;12.93;;;9.63;;
27161;SDS011;54464;50.558;9.704;2022-12-07T00:48:19;12.83;;;9.73;;
27161;SDS011;54464;50.558;9.704;2022-12-07T00:50:45;13.13;;;9.37;;
27161;SDS011;54464;50.558;9.704;2022-12-07T00:53:11;15.80;;;10.73;;
27161;SDS011;54464;50.558;9.704;2022-12-07T00:55:37;13.90;;;10.00;;
27161;SDS011;54464;50.558;9.704;2022-12-07T00:58:03;15.50;;;10.90;;
27161;SDS011;54464;50.558;9.704;2022-12-07T01:00:29;17.40;;;10.73;;
27161;SDS011;54464;50.558;9.704;2022-12-07T01:02:54;12.77;;;9.50;;
27161;SDS011;54464;50.558;9.704;2022-12-07T01:05:20;14.47;;;10.93;;
27161;SDS011;54464;50.558;9.704;2022-12-07T01:07:45;16.23;;;11.87;;
27161;SDS011;54464;50.558;9.704;2022-12-07T01:10:12;18.80;;;12.07;;
27161;SDS011;54464;50.558;9.704;2022-12-07T01:12:38;17.40;;;12.50;;
27161;SDS011;54464;50.558;9.704;2022-12-07T01:15:04;18.33;;;12.47;;
27161;SDS011;54464;50.558;9.704;2022-12-07T01:17:30;18.67;;;12.43;;
27161;SDS011;54464;50.558;9.704;2022-12-07T01:19:56;19.07;;;12.17;;
27161;SDS011;54464;50.558;9.704;2022-12-07T01:22:21;19.63;;;13.97;;
27161;SDS011;54464;50.558;9.704;2022-12-07T01:24:47;21.97;;;13.07;;
27161;SDS011;54464;50.558;9.704;2022-12-07T01:27:13;20.73;;;13.77;;
27161;SDS011;54464;50.558;9.704;2022-12-07T01:29:39;22.13;;;14.17;;
27161;SDS011;54464;50.558;9.704;2022-12-07T01:32:05;21.93;;;14.17;;
27161;SDS011;54464;50.558;9.704;2022-12-07T01:34:30;22.17;;;15.00;;
27161;SDS011;54464;50.558;9.704;2022-12-07T01:36:56;25.80;;;16.10;;
27161;SDS011;54464;50.558;9.704;2022-12-07T01:39:22;24.17;;;15.77;;
27161;SDS011;54464;50.558;9.704;2022-12-07T01:41:48;24.60;;;15.67;;
27161;SDS011;54464;50.558;9.704;2022-12-07T01:44:22;24.57;;;16.47;;
27161;SDS011;54464;50.558;9.704;2022-12-07T01:51:50;27.13;;;16.43;;
27161;SDS011;54464;50.558;9.704;2022-12-07T01:54:19;25.17;;;16.33;;
27161;SDS011;54464;50.558;9.704;2022-12-07T01:56:51;26.23;;;16.17;;
27161;SDS011;54464;50.558;9.704;2022-12-07T01:59:18;26.33;;;16.67;;
27161;SDS011;54464;50.558;9.704;2022-12-07T02:01:47;28.30;;;17.50;;
27161;SDS011;54464;50.558;9.704;2022-12-07T02:04:13;24.90;;;15.03;;
27161;SDS011;54464;50.558;9.704;2022-12-07T02:06:40;26.53;;;16.00;;
27161;SDS011;54464;50.558;9.704;2022-12-07T02:09:07;26.60;;;16.87;;
27161;SDS011;54464;50.558;9.704;2022-12-07T02:11:33;24.07;;;14.13;;
27161;SDS011;54464;50.558;9.704;2022-12-07T02:14:00;23.63;;;16.70;;
27161;SDS011;54464;50.558;9.704;2022-12-07T02:17:28;26.77;;;16.77;;
27161;SDS011;54464;50.558;9.704;2022-12-07T02:30:57;24.53;;;14.70;;
27161;SDS011;54464;50.558;9.704;2022-12-07T02:33:33;23.50;;;14.70;;
27161;SDS011;54464;50.558;9.704;2022-12-07T02:38:42;26.37;;;17.23;;
27161;SDS011;54464;50.558;9.704;2022-12-07T02:41:15;27.77;;;16.93;;
27161;SDS011;54464;50.558;9.704;2022-12-07T02:43:46;26.23;;;17.10;;
27161;SDS011;54464;50.558;9.704;2022-12-07T02:46:21;28.00;;;17.27;;
27161;SDS011;54464;50.558;9.704;2022-12-07T02:48:51;26.27;;;17.33;;
27161;SDS011;54464;50.558;9.704;2022-12-07T02:51:19;27.07;;;16.47;;
27161;SDS011;54464;50.558;9.704;2022-12-07T02:53:46;22.97;;;14.93;;
27161;SDS011;54464;50.558;9.704;2022-12-07T02:59:42;30.40;;;18.70;;
27161;SDS011;54464;50.558;9.704;2022-12-07T03:15:40;25.10;;;16.43;;
27161;SDS011;54464;50.558;9.704;2022-12-07T03:18:13;27.83;;;17.33;;
27161;SDS011;54464;50.558;9.704;2022-12-07T03:20:43;26.30;;;15.90;;
27161;SDS011;54464;50.558;9.704;2022-12-07T03:23:11;27.67;;;17.17;;
27161;SDS011;54464;50.558;9.704;2022-12-07T03:25:43;21.53;;;14.07;;
27161;SDS011;54464;50.558;9.704;2022-12-07T03:28:13;23.13;;;15.60;;
27161;SDS011;54464;50.558;9.704;2022-12-07T03:30:48;22.80;;;15.53;;
27161;SDS011;54464;50.558;9.704;2022-12-07T03:33:28;25.67;;;17.20;;
27161;SDS011;54464;50.558;9.704;2022-12-07T03:36:05;25.33;;;15.87;;
27161;SDS011;54464;50.558;9.704;2022-12-07T03:41:54;23.03;;;15.13;;
27161;SDS011;54464;50.558;9.704;2022-12-07T03:44:21;20.90;;;13.70;;
27161;SDS011;54464;50.558;9.704;2022-12-07T03:49:46;24.07;;;16.20;;
27161;SDS011;54464;50.558;9.704;2022-12-07T03:54:55;26.30;;;16.93;;
27161;SDS011;54464;50.558;9.704;2022-12-07T03:57:22;22.80;;;15.33;;
27161;SDS011;54464;50.558;9.704;2022-12-07T03:59:50;22.90;;;13.87;;
27161;SDS011;54464;50.558;9.704;2022-12-07T04:02:17;22.63;;;15.13;;
27161;SDS011;54464;50.558;9.704;2022-12-07T04:04:43;22.27;;;15.73;;
27161;SDS011;54464;50.558;9.704;2022-12-07T04:07:09;27.17;;;17.03;;
27161;SDS011;54464;50.558;9.704;2022-12-07T04:09:35;25.47;;;15.70;;
27161;SDS011;54464;50.558;9.704;2022-12-07T04:12:01;28.13;;;17.83;;
27161;SDS011;54464;50.558;9.704;2022-12-07T04:14:27;23.00;;;14.33;;
27161;SDS011;54464;50.558;9.704;2022-12-07T04:16:54;23.20;;;15.37;;
27161;SDS011;54464;50.558;9.704;2022-12-07T04:19:22;22.00;;;14.53;;
27161;SDS011;54464;50.558;9.704;2022-12-07T04:21:53;19.43;;;12.37;;
27161;SDS011;54464;50.558;9.704;2022-12-07T04:24:19;24.33;;;15.77;;
27161;SDS011;54464;50.558;9.704;2022-12-07T04:26:45;23.60;;;17.20;;
27161;SDS011;54464;50.558;9.704;2022-12-07T04:29:11;20.97;;;14.50;;
27161;SDS011;54464;50.558;9.704;2022-12-07T04:31:37;23.67;;;15.83;;
27161;SDS011;54464;50.558;9.704;2022-12-07T04:34:03;24.20;;;16.73;;
27161;SDS011;54464;50.558;9.704;2022-12-07T04:36:30;21.90;;;15.47;;
27161;SDS011;54464;50.558;9.704;2022-12-07T04:38:56;23.83;;;17.10;;
27161;SDS011;54464;50.558;9.704;2022-12-07T04:41:22;23.80;;;15.53;;
27161;SDS011;54464;50.558;9.704;2022-12-07T04:43:55;22.70;;;14.93;;
27161;SDS011;54464;50.558;9.704;2022-12-07T04:46:22;21.60;;;14.17;;
27161;SDS011;54464;50.558;9.704;2022-12-07T04:48:49;22.40;;;15.67;;
27161;SDS011;54464;50.558;9.704;2022-12-07T04:51:15;24.03;;;15.03;;
27161;SDS011;54464;50.558;9.704;2022-12-07T04:53:47;25.07;;;16.90;;
27161;SDS011;54464;50.558;9.704;2022-12-07T04:56:13;19.67;;;13.10;;
27161;SDS011;54464;50.558;9.704;2022-12-07T04:58:40;23.50;;;15.77;;
27161;SDS011;54464;50.558;9.704;2022-12-07T05:01:07;24.50;;;15.67;;
27161;SDS011;54464;50.558;9.704;2022-12-07T05:03:32;22.40;;;15.90;;
27161;SDS011;54464;50.558;9.704;2022-12-07T05:05:58;28.87;;;15.57;;
27161;SDS011;54464;50.558;9.704;2022-12-07T05:08:24;25.03;;;15.80;;
27161;SDS011;54464;50.558;9.704;2022-12-07T05:10:49;25.27;;;15.37;;
27161;SDS011;54464;50.558;9.704;2022-12-07T05:13:15;23.10;;;14.83;;
27161;SDS011;54464;50.558;9.704;2022-12-07T05:15:41;26.27;;;17.57;;
27161;SDS011;54464;50.558;9.704;2022-12-07T05:18:08;17.03;;;8.67;;
27161;SDS011;54464;50.558;9.704;2022-12-07T05:20:36;21.67;;;15.53;;
27161;SDS011;54464;50.558;9.704;2022-12-07T05:23:02;23.33;;;15.70;;
27161;SDS011;54464;50.558;9.704;2022-12-07T05:25:28;15.30;;;10.13;;
27161;SDS011;54464;50.558;9.704;2022-12-07T05:27:54;19.17;;;12.10;;
27161;SDS011;54464;50.558;9.704;2022-12-07T05:30:20;21.03;;;13.87;;
27161;SDS011;54464;50.558;9.704;2022-12-07T05:32:46;25.73;;;16.67;;
27161;SDS011;54464;50.558;9.704;2022-12-07T05:35:12;24.43;;;15.37;;
27161;SDS011;54464;50.558;9.704;2022-12-07T05:37:37;12.37;;;8.13;;
27161;SDS011;54464;50.558;9.704;2022-12-07T05:40:03;24.07;;;16.33;;
27161;SDS011;54464;50.558;9.704;2022-12-07T05:42:30;24.10;;;16.00;;
27161;SDS011;54464;50.558;9.704;2022-12-07T05:44:55;20.93;;;13.17;;
27161;SDS011;54464;50.558;9.704;2022-12-07T05:47:21;20.87;;;13.27;;
27161;SDS011;54464;50.558;9.704;2022-12-07T05:49:46;22.20;;;14.87;;
27161;SDS011;54464;50.558;9.704;2022-12-07T05:52:12;19.17;;;11.97;;
27161;SDS011;54464;50.558;9.704;2022-12-07T05:54:38;21.63;;;14.30;;
27161;SDS011;54464;50.558;9.704;2022-12-07T05:57:03;20.87;;;14.40;;
27161;SDS011;54464;50.558;9.704;2022-12-07T05:59:29;20.13;;;13.30;;
27161;SDS011;54464;50.558;9.704;2022-12-07T06:04:22;20.00;;;15.17;;
27161;SDS011;54464;50.558;9.704;2022-12-07T06:06:50;19.73;;;13.83;;
27161;SDS011;54464;50.558;9.704;2022-12-07T06:09:16;18.13;;;12.67;;
27161;SDS011;54464;50.558;9.704;2022-12-07T06:11:43;19.00;;;13.60;;
27161;SDS011;54464;50.558;9.704;2022-12-07T06:14:27;20.13;;;14.60;;
27161;SDS011;54464;50.558;9.704;2022-12-07T06:16:53;20.20;;;14.30;;
27161;SDS011;54464;50.558;9.704;2022-12-07T06:19:19;16.67;;;12.67;;
27161;SDS011;54464;50.558;9.704;2022-12-07T06:21:45;19.17;;;13.93;;
27161;SDS011;54464;50.558;9.704;2022-12-07T06:24:11;17.60;;;12.77;;
27161;SDS011;54464;50.558;9.704;2022-12-07T06:26:37;16.30;;;12.27;;
27161;SDS011;54464;50.558;9.704;2022-12-07T06:29:03;15.43;;;11.13;;
27161;SDS011;54464;50.558;9.704;2022-12-07T06:31:29;12.27;;;9.27;;
27161;SDS011;54464;50.558;9.704;2022-12-07T06:34:02;14.90;;;12.33;;
27161;SDS011;54464;50.558;9.704;2022-12-07T06:36:29;14.63;;;10.47;;
27161;SDS011;54464;50.558;9.704;2022-12-07T06:38:55;13.10;;;10.07;;
27161;SDS011;54464;50.558;9.704;2022-12-07T06:41:21;16.60;;;11.70;;
27161;SDS011;54464;50.558;9.704;2022-12-07T06:43:47;15.80;;;12.10;;
27161;SDS011;54464;50.558;9.704;2022-12-07T06:46:13;15.23;;;11.83;;
27161;SDS011;54464;50.558;9.704;2022-12-07T06:48:39;16.63;;;13.20;;
27161;SDS011;54464;50.558;9.704;2022-12-07T06:51:05;16.97;;;12.53;;
27161;SDS011;54464;50.558;9.704;2022-12-07T06:53:31;17.70;;;13.70;;
27161;SDS011;54464;50.558;9.704;2022-12-07T06:55:56;16.30;;;12.40;;
27161;SDS011;54464;50.558;9.704;2022-12-07T06:58:22;15.37;;;11.67;;
27161;SDS011;54464;50.558;9.704;2022-12-07T07:00:48;17.27;;;11.37;;
27161;SDS011;54464;50.558;9.704;2022-12-07T07:03:17;16.23;;;11.93;;
27161;SDS011;54464;50.558;9.704;2022-12-07T07:05:43;17.43;;;12.30;;
27161;SDS011;54464;50.558;9.704;2022-12-07T07:08:09;17.93;;;13.00;;
27161;SDS011;54464;50.558;9.704;2022-12-07T07:10:36;15.83;;;11.87;;
27161;SDS011;54464;50.558;9.704;2022-12-07T07:13:02;15.20;;;11.37;;
27161;SDS011;54464;50.558;9.704;2022-12-07T07:15:28;16.37;;;12.63;;
27161;SDS011;54464;50.558;9.704;2022-12-07T07:17:54;13.67;;;9.37;;
27161;SDS011;54464;50.558;9.704;2022-12-07T07:20:20;16.10;;;11.60;;
27161;SDS011;54464;50.558;9.704;2022-12-07T07:22:47;19.17;;;13.47;;
27161;SDS011;54464;50.558;9.704;2022-12-07T07:25:13;18.40;;;13.13;;
27161;SDS011;54464;50.558;9.704;2022-12-07T07:27:39;16.77;;;12.23;;
27161;SDS011;54464;50.558;9.704;2022-12-07T07:30:05;16.63;;;12.17;;
27161;SDS011;54464;50.558;9.704;2022-12-07T07:32:31;14.67;;;11.53;;
27161;SDS011;54464;50.558;9.704;2022-12-07T07:34:57;13.93;;;11.37;;
27161;SDS011;54464;50.558;9.704;2022-12-07T07:37:23;14.13;;;10.97;;
27161;SDS011;54464;50.558;9.704;2022-12-07T07:39:49;16.47;;;11.40;;
27161;SDS011;54464;50.558;9.704;2022-12-07T07:42:14;14.40;;;10.97;;
27161;SDS011;54464;50.558;9.704;2022-12-07T07:44:40;13.13;;;10.63;;
27161;SDS011;54464;50.558;9.704;2022-12-07T07:47:06;13.13;;;10.47;;
27161;SDS011;54464;50.558;9.704;2022-12-07T07:49:31;14.73;;;11.30;;
27161;SDS011;54464;50.558;9.704;2022-12-07T07:51:57;14.20;;;9.43;;
27161;SDS011;54464;50.558;9.704;2022-12-07T07:54:23;13.30;;;10.37;;
27161;SDS011;54464;50.558;9.704;2022-12-07T07:56:49;13.97;;;10.80;;
27161;SDS011;54464;50.558;9.704;2022-12-07T07:59:14;12.60;;;10.03;;
27161;SDS011;54464;50.558;9.704;2022-12-07T08:01:40;11.60;;;8.83;;
27161;SDS011;54464;50.558;9.704;2022-12-07T08:04:06;11.60;;;8.93;;
27161;SDS011;54464;50.558;9.704;2022-12-07T08:06:32;11.47;;;8.83;;
27161;SDS011;54464;50.558;9.704;2022-12-07T08:08:57;11.87;;;8.97;;
27161;SDS011;54464;50.558;9.704;2022-12-07T08:11:24;5.00;;;4.07;;
27161;SDS011;54464;50.558;9.704;2022-12-07T08:13:49;10.50;;;7.80;;
27161;SDS011;54464;50.558;9.704;2022-12-07T08:16:15;10.40;;;7.80;;
27161;SDS011;54464;50.558;9.704;2022-12-07T08:18:41;11.07;;;8.03;;
27161;SDS011;54464;50.558;9.704;2022-12-07T08:21:09;11.17;;;7.63;;
27161;SDS011;54464;50.558;9.704;2022-12-07T08:23:38;9.13;;;7.03;;
27161;SDS011;54464;50.558;9.704;2022-12-07T08:26:04;10.50;;;8.10;;
27161;SDS011;54464;50.558;9.704;2022-12-07T08:28:35;10.27;;;8.20;;
27161;SDS011;54464;50.558;9.704;2022-12-07T08:31:04;8.97;;;5.60;;
27161;SDS011;54464;50.558;9.704;2022-12-07T08:33:32;11.13;;;8.40;;
27161;SDS011;54464;50.558;9.704;2022-12-07T08:36:04;11.17;;;8.07;;
27161;SDS011;54464;50.558;9.704;2022-12-07T08:38:34;11.47;;;7.73;;
27161;SDS011;54464;50.558;9.704;2022-12-07T08:41:01;11.70;;;8.67;;
27161;SDS011;54464;50.558;9.704;2022-12-07T08:43:27;10.10;;;8.40;;
27161;SDS011;54464;50.558;9.704;2022-12-07T08:46:38;10.67;;;8.50;;
27161;SDS011;54464;50.558;9.704;2022-12-07T08:48:45;12.00;;;9.40;;
27161;SDS011;54464;50.558;9.704;2022-12-07T08:51:23;11.67;;;8.90;;
27161;SDS011;54464;50.558;9.704;2022-12-07T08:53:50;11.63;;;9.10;;
27161;SDS011;54464;50.558;9.704;2022-12-07T08:56:16;13.80;;;9.23;;
27161;SDS011;54464;50.558;9.704;2022-12-07T08:58:42;11.53;;;9.40;;
27161;SDS011;54464;50.558;9.704;2022-12-07T09:01:09;11.00;;;8.70;;
27161;SDS011;54464;50.558;9.704;2022-12-07T09:03:35;11.40;;;8.43;;
27161;SDS011;54464;50.558;9.704;2022-12-07T09:06:00;11.90;;;9.60;;
27161;SDS011;54464;50.558;9.704;2022-12-07T09:08:28;11.30;;;8.27;;
27161;SDS011;54464;50.558;9.704;2022-12-07T09:10:57;11.00;;;9.40;;
27161;SDS011;54464;50.558;9.704;2022-12-07T09:13:22;11.73;;;8.10;;
27161;SDS011;54464;50.558;9.704;2022-12-07T09:15:48;12.70;;;8.87;;
27161;SDS011;54464;50.558;9.704;2022-12-07T09:18:14;14.43;;;10.10;;
27161;SDS011;54464;50.558;9.704;2022-12-07T09:20:39;11.87;;;9.27;;
27161;SDS011;54464;50.558;9.704;2022-12-07T09:23:05;12.43;;;9.87;;
27161;SDS011;54464;50.558;9.704;2022-12-07T09:25:32;11.03;;;9.07;;
27161;SDS011;54464;50.558;9.704;2022-12-07T09:27:58;13.30;;;9.13;;
27161;SDS011;54464;50.558;9.704;2022-12-07T09:30:24;10.20;;;8.97;;
27161;SDS011;54464;50.558;9.704;2022-12-07T09:32:50;12.27;;;9.03;;
27161;SDS011;54464;50.558;9.704;2022-12-07T09:35:19;13.90;;;9.47;;
27161;SDS011;54464;50.558;9.704;2022-12-07T09:37:47;11.60;;;8.27;;
27161;SDS011;54464;50.558;9.704;2022-12-07T09:40:13;10.47;;;7.83;;
27161;SDS011;54464;50.558;9.704;2022-12-07T09:42:41;11.90;;;8.60;;
27161;SDS011;54464;50.558;9.704;2022-12-07T09:45:52;11.73;;;6.93;;
27161;SDS011;54464;50.558;9.704;2022-12-07T09:48:04;9.10;;;6.30;;
27161;SDS011;54464;50.558;9.704;2022-12-07T09:50:39;11.83;;;8.67;;
27161;SDS011;54464;50.558;9.704;2022-12-07T09:53:07;11.53;;;6.77;;
27161;SDS011;54464;50.558;9.704;2022-12-07T09:55:38;10.53;;;7.83;;
27161;SDS011;54464;50.558;9.704;2022-12-07T09:58:05;10.30;;;7.30;;
27161;SDS011;54464;50.558;9.704;2022-12-07T10:00:31;10.23;;;8.07;;
27161;SDS011;54464;50.558;9.704;2022-12-07T10:03:00;10.07;;;7.37;;
27161;SDS011;54464;50.558;9.704;2022-12-07T10:05:31;4.57;;;3.43;;
27161;SDS011;54464;50.558;9.704;2022-12-07T10:08:03;6.50;;;4.37;;
27161;SDS011;54464;50.558;9.704;2022-12-07T10:10:30;10.57;;;5.60;;
27161;SDS011;54464;50.558;9.704;2022-12-07T10:15:23;4.53;;;3.27;;
27161;SDS011;54464;50.558;9.704;2022-12-07T10:18:14;7.90;;;5.07;;
27161;SDS011;54464;50.558;9.704;2022-12-07T10:21:01;5.60;;;3.77;;
27161;SDS011;54464;50.558;9.704;2022-12-07T10:23:30;3.57;;;2.83;;
27161;SDS011;54464;50.558;9.704;2022-12-07T10:25:56;3.93;;;2.77;;
27161;SDS011;54464;50.558;9.704;2022-12-07T10:28:22;6.20;;;4.37;;
27161;SDS011;54464;50.558;9.704;2022-12-07T10:30:57;5.47;;;3.20;;
27161;SDS011;54464;50.558;9.704;2022-12-07T10:33:35;8.03;;;4.67;;
27161;SDS011;54464;50.558;9.704;2022-12-07T10:36:25;7.27;;;4.10;;
27161;SDS011;54464;50.558;9.704;2022-12-07T10:41:25;6.13;;;4.10;;
27161;SDS011;54464;50.558;9.704;2022-12-07T10:43:55;6.60;;;4.17;;
27161;SDS011;54464;50.558;9.704;2022-12-07T10:51:55;3.63;;;2.33;;
27161;SDS011;54464;50.558;9.704;2022-12-07T11:00:00;5.47;;;3.03;;
27161;SDS011;54464;50.558;9.704;2022-12-07T11:05:28;7.60;;;5.50;;
27161;SDS011;54464;50.558;9.704;2022-12-07T11:10:56;4.83;;;3.10;;
27161;SDS011;54464;50.558;9.704;2022-12-07T11:19:18;11.40;;;6.93;;
27161;SDS011;54464;50.558;9.704;2022-12-07T11:22:00;4.93;;;3.30;;
27161;SDS011;54464;50.558;9.704;2022-12-07T11:35:37;5.97;;;3.73;;
27161;SDS011;54464;50.558;9.704;2022-12-07T11:38:15;4.10;;;3.10;;
27161;SDS011;54464;50.558;9.704;2022-12-07T11:40:52;7.40;;;3.40;;
27161;SDS011;54464;50.558;9.704;2022-12-07T11:43:25;5.67;;;3.30;;
27161;SDS011;54464;50.558;9.704;2022-12-07T11:46:11;3.57;;;2.73;;
27161;SDS011;54464;50.558;9.704;2022-12-07T11:51:26;5.13;;;3.47;;
27161;SDS011;54464;50.558;9.704;2022-12-07T11:54:01;4.87;;;3.30;;
27161;SDS011;54464;50.558;9.704;2022-12-07T11:56:40;4.97;;;2.27;;
27161;SDS011;54464;50.558;9.704;2022-12-07T11:59:12;6.43;;;3.67;;
27161;SDS011;54464;50.558;9.704;2022-12-07T12:07:40;3.90;;;3.10;;
27161;SDS011;54464;50.558;9.704;2022-12-07T12:12:46;7.77;;;4.50;;
27161;SDS011;54464;50.558;9.704;2022-12-07T12:15:47;7.83;;;3.13;;
27161;SDS011;54464;50.558;9.704;2022-12-07T12:21:00;4.27;;;2.70;;
27161;SDS011;54464;50.558;9.704;2022-12-07T12:23:51;4.00;;;2.70;;
27161;SDS011;54464;50.558;9.704;2022-12-07T12:26:17;4.10;;;2.40;;
27161;SDS011;54464;50.558;9.704;2022-12-07T12:28:54;4.07;;;2.83;;
27161;SDS011;54464;50.558;9.704;2022-12-07T12:34:00;5.30;;;2.90;;
27161;SDS011;54464;50.558;9.704;2022-12-07T12:44:38;6.33;;;2.90;;
27161;SDS011;54464;50.558;9.704;2022-12-07T12:46:57;3.97;;;2.10;;
27161;SDS011;54464;50.558;9.704;2022-12-07T12:51:54;8.73;;;3.63;;
27161;SDS011;54464;50.558;9.704;2022-12-07T12:56:59;6.10;;;3.67;;
27161;SDS011;54464;50.558;9.704;2022-12-07T13:12:59;5.67;;;3.50;;
27161;SDS011;54464;50.558;9.704;2022-12-07T13:21:01;5.87;;;3.20;;
27161;SDS011;54464;50.558;9.704;2022-12-07T13:28:46;5.23;;;3.00;;
27161;SDS011;54464;50.558;9.704;2022-12-07T13:33:58;3.40;;;2.00;;
27161;SDS011;54464;50.558;9.704;2022-12-07T13:36:25;6.27;;;2.90;;
27161;SDS011;54464;50.558;9.704;2022-12-07T13:38:53;5.43;;;3.70;;
27161;SDS011;54464;50.558;9.704;2022-12-07T13:41:22;4.63;;;2.70;;
27161;SDS011;54464;50.558;9.704;2022-12-07T13:44:00;5.17;;;2.83;;
27161;SDS011;54464;50.558;9.704;2022-12-07T13:46:31;6.50;;;3.30;;
27161;SDS011;54464;50.558;9.704;2022-12-07T13:49:24;4.43;;;3.20;;
27161;SDS011;54464;50.558;9.704;2022-12-07T13:51:53;5.27;;;3.13;;
27161;SDS011;54464;50.558;9.704;2022-12-07T13:54:21;4.07;;;3.03;;
27161;SDS011;54464;50.558;9.704;2022-12-07T13:56:48;6.67;;;3.43;;
27161;SDS011;54464;50.558;9.704;2022-12-07T13:59:17;4.17;;;3.70;;
27161;SDS011;54464;50.558;9.704;2022-12-07T14:01:46;6.40;;;4.37;;
27161;SDS011;54464;50.558;9.704;2022-12-07T14:04:36;6.13;;;3.07;;
27161;SDS011;54464;50.558;9.704;2022-12-07T14:07:15;4.60;;;2.80;;
27161;SDS011;54464;50.558;9.704;2022-12-07T14:10:03;2.83;;;2.23;;
27161;SDS011;54464;50.558;9.704;2022-12-07T14:12:31;5.13;;;2.20;;
27161;SDS011;54464;50.558;9.704;2022-12-07T14:15:00;4.77;;;2.67;;
27161;SDS011;54464;50.558;9.704;2022-12-07T14:17:27;8.07;;;2.93;;
27161;SDS011;54464;50.558;9.704;2022-12-07T14:19:57;6.27;;;2.67;;
27161;SDS011;54464;50.558;9.704;2022-12-07T14:22:38;5.57;;;3.00;;
27161;SDS011;54464;50.558;9.704;2022-12-07T14:27:47;4.97;;;3.50;;
27161;SDS011;54464;50.558;9.704;2022-12-07T14:30:15;6.67;;;2.90;;
27161;SDS011;54464;50.558;9.704;2022-12-07T14:32:42;3.77;;;2.60;;
27161;SDS011;54464;50.558;9.704;2022-12-07T14:35:13;3.73;;;2.37;;
27161;SDS011;54464;50.558;9.704;2022-12-07T14:37:41;4.60;;;2.73;;
27161;SDS011;54464;50.558;9.704;2022-12-07T14:40:11;3.10;;;2.37;;
27161;SDS011;54464;50.558;9.704;2022-12-07T14:42:55;5.23;;;3.23;;
27161;SDS011;54464;50.558;9.704;2022-12-07T14:45:25;4.40;;;2.77;;
27161;SDS011;54464;50.558;9.704;2022-12-07T14:47:51;7.37;;;3.63;;
27161;SDS011;54464;50.558;9.704;2022-12-07T14:50:18;6.20;;;3.60;;
27161;SDS011;54464;50.558;9.704;2022-12-07T14:52:46;6.40;;;3.80;;
27161;SDS011;54464;50.558;9.704;2022-12-07T14:55:25;6.30;;;3.87;;
27161;SDS011;54464;50.558;9.704;2022-12-07T14:57:53;7.87;;;3.37;;
27161;SDS011;54464;50.558;9.704;2022-12-07T15:00:19;4.90;;;3.80;;
27161;SDS011;54464;50.558;9.704;2022-12-07T15:02:47;4.93;;;3.60;;
27161;SDS011;54464;50.558;9.704;2022-12-07T15:05:14;4.53;;;3.40;;
27161;SDS011;54464;50.558;9.704;2022-12-07T15:07:40;4.97;;;4.33;;
27161;SDS011;54464;50.558;9.704;2022-12-07T15:10:06;7.77;;;4.50;;
27161;SDS011;54464;50.558;9.704;2022-12-07T15:12:46;11.63;;;8.70;;
27161;SDS011;54464;50.558;9.704;2022-12-07T15:15:12;17.77;;;12.40;;
27161;SDS011;54464;50.558;9.704;2022-12-07T15:17:38;16.67;;;12.23;;
27161;SDS011;54464;50.558;9.704;2022-12-07T15:20:04;12.33;;;8.37;;
27161;SDS011;54464;50.558;9.704;2022-12-07T15:22:32;9.77;;;6.37;;
27161;SDS011;54464;50.558;9.704;2022-12-07T15:24:58;7.13;;;4.80;;
27161;SDS011;54464;50.558;9.704;2022-12-07T15:27:24;7.70;;;5.00;;
27161;SDS011;54464;50.558;9.704;2022-12-07T15:29:49;7.93;;;4.40;;
27161;SDS011;54464;50.558;9.704;2022-12-07T15:32:15;8.07;;;4.80;;
27161;SDS011;54464;50.558;9.704;2022-12-07T15:34:41;6.90;;;4.50;;
27161;SDS011;54464;50.558;9.704;2022-12-07T15:37:07;7.13;;;4.73;;
27161;SDS011;54464;50.558;9.704;2022-12-07T15:39:33;6.13;;;5.23;;
27161;SDS011;54464;50.558;9.704;2022-12-07T15:42:01;8.33;;;4.40;;
27161;SDS011;54464;50.558;9.704;2022-12-07T15:44:27;6.37;;;4.20;;
27161;SDS011;54464;50.558;9.704;2022-12-07T15:47:11;5.57;;;3.93;;
27161;SDS011;54464;50.558;9.704;2022-12-07T15:49:36;6.33;;;4.03;;
27161;SDS011;54464;50.558;9.704;2022-12-07T15:52:02;6.10;;;4.10;;
27161;SDS011;54464;50.558;9.704;2022-12-07T15:54:28;6.93;;;3.80;;
27161;SDS011;54464;50.558;9.704;2022-12-07T15:56:55;5.63;;;3.90;;
27161;SDS011;54464;50.558;9.704;2022-12-07T15:59:21;5.47;;;4.10;;
27161;SDS011;54464;50.558;9.704;2022-12-07T16:01:48;6.97;;;4.50;;
27161;SDS011;54464;50.558;9.704;2022-12-07T16:04:13;9.13;;;5.30;;
27161;SDS011;54464;50.558;9.704;2022-12-07T16:06:39;5.60;;;4.00;;
27161;SDS011;54464;50.558;9.704;2022-12-07T16:09:05;4.93;;;4.03;;
27161;SDS011;54464;50.558;9.704;2022-12-07T16:11:31;10.40;;;7.07;;
27161;SDS011;54464;50.558;9.704;2022-12-07T16:13:57;6.90;;;4.90;;
27161;SDS011;54464;50.558;9.704;2022-12-07T16:16:23;9.10;;;5.27;;
27161;SDS011;54464;50.558;9.704;2022-12-07T16:18:50;6.73;;;5.20;;
27161;SDS011;54464;50.558;9.704;2022-12-07T16:21:16;6.20;;;4.17;;
27161;SDS011;54464;50.558;9.704;2022-12-07T16:23:42;7.93;;;4.37;;
27161;SDS011;54464;50.558;9.704;2022-12-07T16:26:13;10.50;;;5.20;;
27161;SDS011;54464;50.558;9.704;2022-12-07T16:28:40;7.67;;;5.37;;
27161;SDS011;54464;50.558;9.704;2022-12-07T16:31:11;6.20;;;4.73;;
27161;SDS011;54464;50.558;9.704;2022-12-07T16:33:39;8.93;;;6.53;;
27161;SDS011;54464;50.558;9.704;2022-12-07T16:36:06;7.13;;;4.80;;
27161;SDS011;54464;50.558;9.704;2022-12-07T16:38:33;10.80;;;6.07;;
27161;SDS011;54464;50.558;9.704;2022-12-07T16:41:00;6.07;;;5.33;;
27161;SDS011;54464;50.558;9.704;2022-12-07T16:43:25;6.97;;;4.30;;
27161;SDS011;54464;50.558;9.704;2022-12-07T16:45:51;5.93;;;4.40;;
27161;SDS011;54464;50.558;9.704;2022-12-07T16:48:17;7.80;;;4.73;;
27161;SDS011;54464;50.558;9.704;2022-12-07T16:50:43;8.63;;;6.00;;
27161;SDS011;54464;50.558;9.704;2022-12-07T16:53:10;8.03;;;4.40;;
27161;SDS011;54464;50.558;9.704;2022-12-07T16:55:41;7.57;;;4.80;;
27161;SDS011;54464;50.558;9.704;2022-12-07T16:58:09;8.97;;;4.90;;
27161;SDS011;54464;50.558;9.704;2022-12-07T17:00:35;5.80;;;4.10;;
27161;SDS011;54464;50.558;9.704;2022-12-07T17:03:02;7.83;;;4.43;;
27161;SDS011;54464;50.558;9.704;2022-12-07T17:05:28;6.47;;;3.77;;
27161;SDS011;54464;50.558;9.704;2022-12-07T17:07:55;6.70;;;4.40;;